EFK - Northeast Kingdom Intl

Pirep is a free, collaborative database of all public and private airports located within the United States. All pilots are welcome to contribute, edit, and improve any airport they have local knowledge about, no registration required.
Are you familiar with this airport? Help out other pilots by adding your local knowledge.
Uploaded photos will be licensed under a CC BY-SA 4.0 license. Please only upload photos you have the rights to use.
Tags
Public
Undocu­mented
METAR / TAF
Edit Tags
Food
Camping
Lodging
Car Rental
Bicycles
Swimming
Golfing
Fishing
Hot Springs
Museum
Flying Clubs
Airpark
Upcoming Events
No upcoming events. Is anything happening here soon?
*
*
*

Where exactly on/near the airport is this event taking place?

Is there a webpage with more information for this event?

Who should be contacted for more information?

What is this event all about?

Repeat every
Description
Transient Parking
Fuel Location
Landing & Tie-down Fees
Crew Car Availability
Flying Clubs
WiFi Access
Airport Statistics
Location: Newport, VT
Elevation: 933ft
Sectional: Montreal
Activation date: Nov 1943
Fuel: 100LL, A+ (prices)
Runway 18/36: 5,301ft
Runway 05/23: 3,996ft
Access: Open to the public
Current Weather — MVFR
  • Weather data is strictly informational and not for flight planning purposes.
  • METAR
    2024-04-24 08:15:00 EDT
    Ceiling Wind Temperature Dewpoint Weather Visbility
    2,900ft 200° @ 5kt 44°F 40°F N/A 10SM
    Clouds: Broken @ 2,900ft, Broken @ 5,000ft, Overcast @ 7,000ft
    Raw: KEFK 241215Z AUTO 20005KT 10SM BKN029 BKN050 OVC070 07/05 A2974 RMK AO2 T00670049
  • TAF
    2024-04-24 08:00:00 EDT – 2024-04-24 11:00:00 EDT
    Ceiling Wind Weather Visbility
    3,500ft 200° @ 5kt Light rain showers 6SM
    Clouds: Overcast @ 3,500ft
    Raw: KEFK 241135Z 2412/2512 20005KT P6SM -SHRA OVC035 FM241500 25006KT 6SM -RA BR SCT008 OVC015 TEMPO 2415/2417 4SM -RA BR BKN008 FM241700 30010G18KT 3SM -RASN BR SCT008 OVC015 TEMPO 2417/2419 2SM -SN BR BKN008 FM241900 32011G19KT P6SM VCSH BKN015 OVC025 FM242000 32012G20KT P6SM BKN035 FM250400 31009KT P6SM SKC
  • TAF
    2024-04-24 11:00:00 EDT – 2024-04-24 13:00:00 EDT
    Ceiling Wind Weather Visbility
    1,500ft 250° @ 6kt Light rain, mist 6SM
    Clouds: Scattered @ 800ft, Overcast @ 1,500ft
    Raw: KEFK 241135Z 2412/2512 20005KT P6SM -SHRA OVC035 FM241500 25006KT 6SM -RA BR SCT008 OVC015 TEMPO 2415/2417 4SM -RA BR BKN008 FM241700 30010G18KT 3SM -RASN BR SCT008 OVC015 TEMPO 2417/2419 2SM -SN BR BKN008 FM241900 32011G19KT P6SM VCSH BKN015 OVC025 FM242000 32012G20KT P6SM BKN035 FM250400 31009KT P6SM SKC
  • TAF
    2024-04-24 11:00:00 EDT – 2024-04-24 13:00:00 EDT
    Ceiling Wind Weather Visbility
    800ft ° @ kt Light rain, mist 4SM
    Clouds: Broken @ 800ft
    Raw: KEFK 241135Z 2412/2512 20005KT P6SM -SHRA OVC035 FM241500 25006KT 6SM -RA BR SCT008 OVC015 TEMPO 2415/2417 4SM -RA BR BKN008 FM241700 30010G18KT 3SM -RASN BR SCT008 OVC015 TEMPO 2417/2419 2SM -SN BR BKN008 FM241900 32011G19KT P6SM VCSH BKN015 OVC025 FM242000 32012G20KT P6SM BKN035 FM250400 31009KT P6SM SKC
  • TAF
    2024-04-24 13:00:00 EDT – 2024-04-24 15:00:00 EDT
    Ceiling Wind Weather Visbility
    1,500ft 300° @ 10kt, gusts 18kt Light rain, light snow, mist 3SM
    Clouds: Scattered @ 800ft, Overcast @ 1,500ft
    Raw: KEFK 241135Z 2412/2512 20005KT P6SM -SHRA OVC035 FM241500 25006KT 6SM -RA BR SCT008 OVC015 TEMPO 2415/2417 4SM -RA BR BKN008 FM241700 30010G18KT 3SM -RASN BR SCT008 OVC015 TEMPO 2417/2419 2SM -SN BR BKN008 FM241900 32011G19KT P6SM VCSH BKN015 OVC025 FM242000 32012G20KT P6SM BKN035 FM250400 31009KT P6SM SKC
  • TAF
    2024-04-24 13:00:00 EDT – 2024-04-24 15:00:00 EDT
    Ceiling Wind Weather Visbility
    800ft ° @ kt Light snow, mist 2SM
    Clouds: Broken @ 800ft
    Raw: KEFK 241135Z 2412/2512 20005KT P6SM -SHRA OVC035 FM241500 25006KT 6SM -RA BR SCT008 OVC015 TEMPO 2415/2417 4SM -RA BR BKN008 FM241700 30010G18KT 3SM -RASN BR SCT008 OVC015 TEMPO 2417/2419 2SM -SN BR BKN008 FM241900 32011G19KT P6SM VCSH BKN015 OVC025 FM242000 32012G20KT P6SM BKN035 FM250400 31009KT P6SM SKC
  • TAF
    2024-04-24 15:00:00 EDT – 2024-04-24 16:00:00 EDT
    Ceiling Wind Weather Visbility
    1,500ft 320° @ 11kt, gusts 19kt Showers in vicinity 6SM
    Clouds: Broken @ 1,500ft, Overcast @ 2,500ft
    Raw: KEFK 241135Z 2412/2512 20005KT P6SM -SHRA OVC035 FM241500 25006KT 6SM -RA BR SCT008 OVC015 TEMPO 2415/2417 4SM -RA BR BKN008 FM241700 30010G18KT 3SM -RASN BR SCT008 OVC015 TEMPO 2417/2419 2SM -SN BR BKN008 FM241900 32011G19KT P6SM VCSH BKN015 OVC025 FM242000 32012G20KT P6SM BKN035 FM250400 31009KT P6SM SKC
  • TAF
    2024-04-24 16:00:00 EDT – 2024-04-25 00:00:00 EDT
    Ceiling Wind Weather Visbility
    3,500ft 320° @ 12kt, gusts 20kt N/A 6SM
    Clouds: Broken @ 3,500ft
    Raw: KEFK 241135Z 2412/2512 20005KT P6SM -SHRA OVC035 FM241500 25006KT 6SM -RA BR SCT008 OVC015 TEMPO 2415/2417 4SM -RA BR BKN008 FM241700 30010G18KT 3SM -RASN BR SCT008 OVC015 TEMPO 2417/2419 2SM -SN BR BKN008 FM241900 32011G19KT P6SM VCSH BKN015 OVC025 FM242000 32012G20KT P6SM BKN035 FM250400 31009KT P6SM SKC
  • TAF
    2024-04-25 00:00:00 EDT – 2024-04-25 08:00:00 EDT
    Ceiling Wind Weather Visbility
    Sky clear 310° @ 9kt N/A 6SM
    Clouds: @ ft
    Raw: KEFK 241135Z 2412/2512 20005KT P6SM -SHRA OVC035 FM241500 25006KT 6SM -RA BR SCT008 OVC015 TEMPO 2415/2417 4SM -RA BR BKN008 FM241700 30010G18KT 3SM -RASN BR SCT008 OVC015 TEMPO 2417/2419 2SM -SN BR BKN008 FM241900 32011G19KT P6SM VCSH BKN015 OVC025 FM242000 32012G20KT P6SM BKN035 FM250400 31009KT P6SM SKC
Click/tap to add an annotation marker to the map
Airport Webcams
No webcams added yet.
Direct links to live image URLs will be displayed inline on this page. URLs to separate webpages will be linked to.
URL:
Direct links to live image URLs will be displayed inline on this page. URLs to separate webpages will be linked to.
URL:
Remarks
  • Estab prior 1959
  • Gulls on & invof arpt.
  • Rwy conds may not be mnt or rprtd when arpt is unatndd.
  • Cold temperature airport. altitude correction required at or below -32c.
  • For cd ctc boston artcc at 603-879-6859.
  • Actvt papi rwy 18 & 36; mirl rwy 18/36 - ctaf.
  • 24/7 self serve. mobile fuel vehicle when atndd.
  • 24/7 self serve. mobile fuel vehicle when atndd.
Comments
Leave a comment What was your experience like at this airport?